sensor_id;sensor_type;location;lat;lon;timestamp;temperature;humidity
25991;DHT22;13779;-33.886;151.198;2023-06-24T00:02:16;14.60;99.90
25991;DHT22;13779;-33.886;151.198;2023-06-24T00:04:46;14.70;99.90
25991;DHT22;13779;-33.886;151.198;2023-06-24T00:07:16;14.70;99.90
25991;DHT22;13779;-33.886;151.198;2023-06-24T00:09:46;14.70;99.90
25991;DHT22;13779;-33.886;151.198;2023-06-24T00:12:17;14.80;99.90
25991;DHT22;13779;-33.886;151.198;2023-06-24T00:14:49;14.80;99.90
25991;DHT22;13779;-33.886;151.198;2023-06-24T00:17:20;14.80;99.90
25991;DHT22;13779;-33.886;151.198;2023-06-24T00:19:50;14.80;99.90
25991;DHT22;13779;-33.886;151.198;2023-06-24T00:22:24;14.90;99.90
25991;DHT22;13779;-33.886;151.198;2023-06-24T00:24:54;14.90;99.90
25991;DHT22;13779;-33.886;151.198;2023-06-24T00:27:24;14.90;99.90
25991;DHT22;13779;-33.886;151.198;2023-06-24T00:29:55;15.00;99.90
25991;DHT22;13779;-33.886;151.198;2023-06-24T00:32:25;14.90;99.90
25991;DHT22;13779;-33.886;151.198;2023-06-24T00:34:55;14.90;99.90
25991;DHT22;13779;-33.886;151.198;2023-06-24T00:37:27;15.00;99.90
25991;DHT22;13779;-33.886;151.198;2023-06-24T00:39:57;15.10;99.90
25991;DHT22;13779;-33.886;151.198;2023-06-24T00:42:27;15.10;99.90
25991;DHT22;13779;-33.886;151.198;2023-06-24T00:44:58;15.10;99.90
25991;DHT22;13779;-33.886;151.198;2023-06-24T00:47:28;15.20;99.90
25991;DHT22;13779;-33.886;151.198;2023-06-24T00:50:02;15.20;99.90
25991;DHT22;13779;-33.886;151.198;2023-06-24T00:52:32;15.30;99.90
25991;DHT22;13779;-33.886;151.198;2023-06-24T00:55:06;15.40;99.90
25991;DHT22;13779;-33.886;151.198;2023-06-24T00:57:36;15.50;99.90
25991;DHT22;13779;-33.886;151.198;2023-06-24T01:00:07;15.50;99.90
25991;DHT22;13779;-33.886;151.198;2023-06-24T01:02:50;15.60;99.90
25991;DHT22;13779;-33.886;151.198;2023-06-24T01:05:21;15.70;99.90
25991;DHT22;13779;-33.886;151.198;2023-06-24T01:07:53;15.80;99.90
25991;DHT22;13779;-33.886;151.198;2023-06-24T01:10:26;15.80;99.90
25991;DHT22;13779;-33.886;151.198;2023-06-24T01:12:56;15.90;99.90
25991;DHT22;13779;-33.886;151.198;2023-06-24T01:15:27;15.90;99.90
25991;DHT22;13779;-33.886;151.198;2023-06-24T01:18:32;15.90;99.90
25991;DHT22;13779;-33.886;151.198;2023-06-24T01:27:10;16.00;99.90
25991;DHT22;13779;-33.886;151.198;2023-06-24T01:32:54;16.10;99.90
25991;DHT22;13779;-33.886;151.198;2023-06-24T01:35:30;16.10;99.90
25991;DHT22;13779;-33.886;151.198;2023-06-24T01:38:07;16.20;99.90
25991;DHT22;13779;-33.886;151.198;2023-06-24T01:40:42;16.20;99.90
25991;DHT22;13779;-33.886;151.198;2023-06-24T01:43:14;16.20;99.90
25991;DHT22;13779;-33.886;151.198;2023-06-24T01:45:50;16.20;99.90
25991;DHT22;13779;-33.886;151.198;2023-06-24T01:48:27;16.30;99.90
25991;DHT22;13779;-33.886;151.198;2023-06-24T01:51:01;16.30;99.90
25991;DHT22;13779;-33.886;151.198;2023-06-24T01:53:35;16.30;99.90
25991;DHT22;13779;-33.886;151.198;2023-06-24T01:56:14;16.30;99.90
25991;DHT22;13779;-33.886;151.198;2023-06-24T01:58:46;16.30;99.90
25991;DHT22;13779;-33.886;151.198;2023-06-24T02:01:18;16.30;99.90
25991;DHT22;13779;-33.886;151.198;2023-06-24T02:03:49;16.40;99.90
25991;DHT22;13779;-33.886;151.198;2023-06-24T02:06:20;16.50;99.90
25991;DHT22;13779;-33.886;151.198;2023-06-24T02:08:50;16.50;99.90
25991;DHT22;13779;-33.886;151.198;2023-06-24T02:11:22;16.50;99.90
25991;DHT22;13779;-33.886;151.198;2023-06-24T02:13:54;16.60;99.90
25991;DHT22;13779;-33.886;151.198;2023-06-24T02:16:24;16.60;99.90
25991;DHT22;13779;-33.886;151.198;2023-06-24T02:18:56;16.60;99.90
25991;DHT22;13779;-33.886;151.198;2023-06-24T02:21:27;16.60;99.90
25991;DHT22;13779;-33.886;151.198;2023-06-24T02:23:58;16.60;99.90
25991;DHT22;13779;-33.886;151.198;2023-06-24T02:26:28;16.60;99.90
25991;DHT22;13779;-33.886;151.198;2023-06-24T02:28:59;16.70;99.90
25991;DHT22;13779;-33.886;151.198;2023-06-24T02:31:29;16.70;99.90
25991;DHT22;13779;-33.886;151.198;2023-06-24T02:33:59;16.80;99.90
25991;DHT22;13779;-33.886;151.198;2023-06-24T02:36:29;16.80;99.90
25991;DHT22;13779;-33.886;151.198;2023-06-24T02:39:00;16.90;99.90
25991;DHT22;13779;-33.886;151.198;2023-06-24T02:41:31;16.90;99.90
25991;DHT22;13779;-33.886;151.198;2023-06-24T02:44:01;17.00;99.90
25991;DHT22;13779;-33.886;151.198;2023-06-24T02:46:33;17.10;99.90
25991;DHT22;13779;-33.886;151.198;2023-06-24T02:49:05;17.20;99.90
25991;DHT22;13779;-33.886;151.198;2023-06-24T02:51:36;17.20;99.90
25991;DHT22;13779;-33.886;151.198;2023-06-24T02:54:06;17.30;99.90
25991;DHT22;13779;-33.886;151.198;2023-06-24T02:56:37;17.40;99.90
25991;DHT22;13779;-33.886;151.198;2023-06-24T02:59:11;17.50;99.90
25991;DHT22;13779;-33.886;151.198;2023-06-24T03:01:42;17.60;99.90
25991;DHT22;13779;-33.886;151.198;2023-06-24T03:04:15;17.70;99.90
25991;DHT22;13779;-33.886;151.198;2023-06-24T03:06:46;17.70;99.90
25991;DHT22;13779;-33.886;151.198;2023-06-24T03:09:19;17.90;99.90
25991;DHT22;13779;-33.886;151.198;2023-06-24T03:11:50;18.00;99.90
25991;DHT22;13779;-33.886;151.198;2023-06-24T03:14:20;18.10;99.90
25991;DHT22;13779;-33.886;151.198;2023-06-24T03:16:51;18.20;99.90
25991;DHT22;13779;-33.886;151.198;2023-06-24T03:19:22;18.30;99.90
25991;DHT22;13779;-33.886;151.198;2023-06-24T03:21:52;18.40;99.90
25991;DHT22;13779;-33.886;151.198;2023-06-24T03:24:23;18.60;99.90
25991;DHT22;13779;-33.886;151.198;2023-06-24T03:26:54;18.70;99.90
25991;DHT22;13779;-33.886;151.198;2023-06-24T03:29:26;19.10;99.90
25991;DHT22;13779;-33.886;151.198;2023-06-24T03:31:58;19.40;99.90
25991;DHT22;13779;-33.886;151.198;2023-06-24T03:34:28;19.70;99.90
25991;DHT22;13779;-33.886;151.198;2023-06-24T03:36:59;19.80;99.90
25991;DHT22;13779;-33.886;151.198;2023-06-24T03:39:30;20.20;99.90
25991;DHT22;13779;-33.886;151.198;2023-06-24T03:42:00;20.10;99.90
25991;DHT22;13779;-33.886;151.198;2023-06-24T03:44:31;20.20;99.90
25991;DHT22;13779;-33.886;151.198;2023-06-24T03:47:01;20.20;99.90
25991;DHT22;13779;-33.886;151.198;2023-06-24T03:49:31;20.00;99.90
25991;DHT22;13779;-33.886;151.198;2023-06-24T03:52:02;20.20;99.90
25991;DHT22;13779;-33.886;151.198;2023-06-24T03:54:32;20.20;99.90
25991;DHT22;13779;-33.886;151.198;2023-06-24T03:57:03;20.40;99.90
25991;DHT22;13779;-33.886;151.198;2023-06-24T03:59:33;20.40;99.90
25991;DHT22;13779;-33.886;151.198;2023-06-24T04:02:04;20.40;99.90
25991;DHT22;13779;-33.886;151.198;2023-06-24T04:04:37;20.60;99.90
25991;DHT22;13779;-33.886;151.198;2023-06-24T04:07:07;20.50;99.90
25991;DHT22;13779;-33.886;151.198;2023-06-24T04:09:38;20.50;99.90
25991;DHT22;13779;-33.886;151.198;2023-06-24T04:12:09;20.70;99.90
25991;DHT22;13779;-33.886;151.198;2023-06-24T04:14:39;20.70;99.90
25991;DHT22;13779;-33.886;151.198;2023-06-24T04:17:10;20.70;99.90
25991;DHT22;13779;-33.886;151.198;2023-06-24T04:19:40;20.40;99.90
25991;DHT22;13779;-33.886;151.198;2023-06-24T04:22:10;20.70;99.90
25991;DHT22;13779;-33.886;151.198;2023-06-24T04:24:41;20.90;99.90
25991;DHT22;13779;-33.886;151.198;2023-06-24T04:27:11;21.10;99.30
25991;DHT22;13779;-33.886;151.198;2023-06-24T04:29:41;21.00;98.80
25991;DHT22;13779;-33.886;151.198;2023-06-24T04:32:11;20.90;99.20
25991;DHT22;13779;-33.886;151.198;2023-06-24T04:34:41;20.80;99.60
25991;DHT22;13779;-33.886;151.198;2023-06-24T04:37:11;20.60;99.60
25991;DHT22;13779;-33.886;151.198;2023-06-24T04:39:43;20.50;99.90
25991;DHT22;13779;-33.886;151.198;2023-06-24T04:42:13;20.40;99.90
25991;DHT22;13779;-33.886;151.198;2023-06-24T04:44:44;20.50;99.90
25991;DHT22;13779;-33.886;151.198;2023-06-24T04:47:14;20.40;99.90
25991;DHT22;13779;-33.886;151.198;2023-06-24T04:49:45;20.30;99.90
25991;DHT22;13779;-33.886;151.198;2023-06-24T04:52:15;20.10;99.90
25991;DHT22;13779;-33.886;151.198;2023-06-24T04:54:46;19.90;99.90
25991;DHT22;13779;-33.886;151.198;2023-06-24T04:57:27;20.00;99.90
25991;DHT22;13779;-33.886;151.198;2023-06-24T04:59:58;19.90;99.90
25991;DHT22;13779;-33.886;151.198;2023-06-24T05:02:29;19.80;99.90
25991;DHT22;13779;-33.886;151.198;2023-06-24T05:04:59;19.50;99.90
25991;DHT22;13779;-33.886;151.198;2023-06-24T05:07:29;19.30;99.90
25991;DHT22;13779;-33.886;151.198;2023-06-24T05:09:59;19.00;99.90
25991;DHT22;13779;-33.886;151.198;2023-06-24T05:12:31;18.90;99.90
25991;DHT22;13779;-33.886;151.198;2023-06-24T05:15:01;18.80;99.90
25991;DHT22;13779;-33.886;151.198;2023-06-24T05:17:32;18.60;99.90
25991;DHT22;13779;-33.886;151.198;2023-06-24T05:20:03;18.60;99.90
25991;DHT22;13779;-33.886;151.198;2023-06-24T05:22:37;18.50;99.90
25991;DHT22;13779;-33.886;151.198;2023-06-24T05:25:08;18.40;99.90
25991;DHT22;13779;-33.886;151.198;2023-06-24T05:27:39;18.30;99.90
25991;DHT22;13779;-33.886;151.198;2023-06-24T05:30:10;18.30;99.90
25991;DHT22;13779;-33.886;151.198;2023-06-24T05:32:44;18.30;99.90
25991;DHT22;13779;-33.886;151.198;2023-06-24T05:35:14;18.30;99.90
25991;DHT22;13779;-33.886;151.198;2023-06-24T05:37:45;18.20;99.90
25991;DHT22;13779;-33.886;151.198;2023-06-24T05:40:16;18.20;99.90
25991;DHT22;13779;-33.886;151.198;2023-06-24T05:42:46;18.20;99.90
25991;DHT22;13779;-33.886;151.198;2023-06-24T05:45:17;18.20;99.90
25991;DHT22;13779;-33.886;151.198;2023-06-24T05:47:48;18.10;99.90
25991;DHT22;13779;-33.886;151.198;2023-06-24T05:50:18;18.10;99.90
25991;DHT22;13779;-33.886;151.198;2023-06-24T05:52:49;18.10;99.90
25991;DHT22;13779;-33.886;151.198;2023-06-24T05:55:20;18.00;99.90
25991;DHT22;13779;-33.886;151.198;2023-06-24T05:57:50;18.00;99.90
25991;DHT22;13779;-33.886;151.198;2023-06-24T06:00:22;17.90;99.90
25991;DHT22;13779;-33.886;151.198;2023-06-24T06:02:58;17.90;99.90
25991;DHT22;13779;-33.886;151.198;2023-06-24T06:05:30;17.90;99.90
25991;DHT22;13779;-33.886;151.198;2023-06-24T06:08:01;17.90;99.90
25991;DHT22;13779;-33.886;151.198;2023-06-24T06:10:32;17.90;99.90
25991;DHT22;13779;-33.886;151.198;2023-06-24T06:13:03;17.80;99.90
25991;DHT22;13779;-33.886;151.198;2023-06-24T06:15:33;17.80;99.90
25991;DHT22;13779;-33.886;151.198;2023-06-24T06:18:04;17.80;99.90
25991;DHT22;13779;-33.886;151.198;2023-06-24T06:20:35;17.70;99.90
25991;DHT22;13779;-33.886;151.198;2023-06-24T06:23:06;17.70;99.90
25991;DHT22;13779;-33.886;151.198;2023-06-24T06:25:36;17.70;99.90
25991;DHT22;13779;-33.886;151.198;2023-06-24T06:28:10;17.70;99.90
25991;DHT22;13779;-33.886;151.198;2023-06-24T06:30:44;17.60;99.90
25991;DHT22;13779;-33.886;151.198;2023-06-24T06:33:15;17.60;99.90
25991;DHT22;13779;-33.886;151.198;2023-06-24T06:35:48;17.50;99.90
25991;DHT22;13779;-33.886;151.198;2023-06-24T06:38:19;17.50;99.90
25991;DHT22;13779;-33.886;151.198;2023-06-24T06:40:49;17.40;99.90
25991;DHT22;13779;-33.886;151.198;2023-06-24T06:43:20;17.40;99.90
25991;DHT22;13779;-33.886;151.198;2023-06-24T06:45:51;17.30;99.90
25991;DHT22;13779;-33.886;151.198;2023-06-24T06:48:22;17.30;99.90
25991;DHT22;13779;-33.886;151.198;2023-06-24T06:50:53;17.20;99.90
25991;DHT22;13779;-33.886;151.198;2023-06-24T06:53:23;17.20;99.90
25991;DHT22;13779;-33.886;151.198;2023-06-24T06:55:53;17.10;99.90
25991;DHT22;13779;-33.886;151.198;2023-06-24T06:58:24;17.00;99.90
25991;DHT22;13779;-33.886;151.198;2023-06-24T07:00:54;16.90;99.90
25991;DHT22;13779;-33.886;151.198;2023-06-24T07:03:25;16.90;99.90
25991;DHT22;13779;-33.886;151.198;2023-06-24T07:05:57;16.80;99.90
25991;DHT22;13779;-33.886;151.198;2023-06-24T07:08:28;16.80;99.90
25991;DHT22;13779;-33.886;151.198;2023-06-24T07:10:59;16.80;99.90
25991;DHT22;13779;-33.886;151.198;2023-06-24T07:13:29;16.70;99.90
25991;DHT22;13779;-33.886;151.198;2023-06-24T07:16:00;16.60;99.90
25991;DHT22;13779;-33.886;151.198;2023-06-24T07:18:31;16.50;99.90
25991;DHT22;13779;-33.886;151.198;2023-06-24T07:21:03;16.50;99.90
25991;DHT22;13779;-33.886;151.198;2023-06-24T07:23:37;16.40;99.90
25991;DHT22;13779;-33.886;151.198;2023-06-24T07:26:08;16.40;99.90
25991;DHT22;13779;-33.886;151.198;2023-06-24T07:28:42;16.40;99.90
25991;DHT22;13779;-33.886;151.198;2023-06-24T07:31:20;16.40;99.90
25991;DHT22;13779;-33.886;151.198;2023-06-24T07:33:52;16.40;99.90
25991;DHT22;13779;-33.886;151.198;2023-06-24T07:36:25;16.40;99.90
25991;DHT22;13779;-33.886;151.198;2023-06-24T07:38:56;16.40;99.90
25991;DHT22;13779;-33.886;151.198;2023-06-24T07:41:28;16.40;99.90
25991;DHT22;13779;-33.886;151.198;2023-06-24T07:43:58;16.40;99.90
25991;DHT22;13779;-33.886;151.198;2023-06-24T07:46:29;16.40;99.90
25991;DHT22;13779;-33.886;151.198;2023-06-24T07:49:03;16.30;99.90
25991;DHT22;13779;-33.886;151.198;2023-06-24T07:51:34;16.30;99.90
25991;DHT22;13779;-33.886;151.198;2023-06-24T07:54:08;16.20;99.90
25991;DHT22;13779;-33.886;151.198;2023-06-24T07:56:38;16.20;99.90
25991;DHT22;13779;-33.886;151.198;2023-06-24T07:59:09;16.20;99.90
25991;DHT22;13779;-33.886;151.198;2023-06-24T08:01:40;16.20;99.90
25991;DHT22;13779;-33.886;151.198;2023-06-24T08:04:10;16.20;99.90
25991;DHT22;13779;-33.886;151.198;2023-06-24T08:06:41;16.20;99.90
25991;DHT22;13779;-33.886;151.198;2023-06-24T08:09:12;16.30;99.90
25991;DHT22;13779;-33.886;151.198;2023-06-24T08:11:43;16.20;99.90
25991;DHT22;13779;-33.886;151.198;2023-06-24T08:14:15;16.10;99.90
25991;DHT22;13779;-33.886;151.198;2023-06-24T08:16:45;16.10;99.90
25991;DHT22;13779;-33.886;151.198;2023-06-24T08:19:19;16.20;99.90
25991;DHT22;13779;-33.886;151.198;2023-06-24T08:21:50;16.20;99.90
25991;DHT22;13779;-33.886;151.198;2023-06-24T08:24:20;16.10;99.90
25991;DHT22;13779;-33.886;151.198;2023-06-24T08:26:51;16.10;99.90
25991;DHT22;13779;-33.886;151.198;2023-06-24T08:29:22;16.20;99.90
25991;DHT22;13779;-33.886;151.198;2023-06-24T08:31:53;16.20;99.90
25991;DHT22;13779;-33.886;151.198;2023-06-24T08:34:27;16.10;99.90
25991;DHT22;13779;-33.886;151.198;2023-06-24T08:36:57;16.10;99.90
25991;DHT22;13779;-33.886;151.198;2023-06-24T08:39:30;16.00;99.90
25991;DHT22;13779;-33.886;151.198;2023-06-24T08:42:02;16.00;99.90
25991;DHT22;13779;-33.886;151.198;2023-06-24T08:44:33;15.90;99.90
25991;DHT22;13779;-33.886;151.198;2023-06-24T08:47:04;15.90;99.90
25991;DHT22;13779;-33.886;151.198;2023-06-24T08:49:48;15.80;99.90
25991;DHT22;13779;-33.886;151.198;2023-06-24T08:52:26;15.80;99.90
25991;DHT22;13779;-33.886;151.198;2023-06-24T08:55:00;15.70;99.90
25991;DHT22;13779;-33.886;151.198;2023-06-24T08:57:31;15.70;99.90
25991;DHT22;13779;-33.886;151.198;2023-06-24T09:00:09;15.70;99.90
25991;DHT22;13779;-33.886;151.198;2023-06-24T09:02:40;15.70;99.90
25991;DHT22;13779;-33.886;151.198;2023-06-24T09:05:11;15.60;99.90
25991;DHT22;13779;-33.886;151.198;2023-06-24T09:07:42;15.60;99.90
25991;DHT22;13779;-33.886;151.198;2023-06-24T09:10:35;15.60;99.90
25991;DHT22;13779;-33.886;151.198;2023-06-24T09:13:06;15.50;99.90
25991;DHT22;13779;-33.886;151.198;2023-06-24T09:15:38;15.50;99.90
25991;DHT22;13779;-33.886;151.198;2023-06-24T09:18:11;15.50;99.90
25991;DHT22;13779;-33.886;151.198;2023-06-24T09:20:48;15.50;99.90
25991;DHT22;13779;-33.886;151.198;2023-06-24T09:23:19;15.40;99.90
25991;DHT22;13779;-33.886;151.198;2023-06-24T09:25:57;15.40;99.90
25991;DHT22;13779;-33.886;151.198;2023-06-24T09:28:30;15.30;99.90
25991;DHT22;13779;-33.886;151.198;2023-06-24T09:31:11;15.30;99.90
25991;DHT22;13779;-33.886;151.198;2023-06-24T09:33:47;15.20;99.90
25991;DHT22;13779;-33.886;151.198;2023-06-24T09:36:18;15.20;99.90
25991;DHT22;13779;-33.886;151.198;2023-06-24T09:38:49;15.20;99.90
25991;DHT22;13779;-33.886;151.198;2023-06-24T09:41:19;15.20;99.90
25991;DHT22;13779;-33.886;151.198;2023-06-24T09:43:49;15.10;99.90
25991;DHT22;13779;-33.886;151.198;2023-06-24T09:46:19;15.10;99.90
25991;DHT22;13779;-33.886;151.198;2023-06-24T09:48:50;15.10;99.90
25991;DHT22;13779;-33.886;151.198;2023-06-24T09:51:20;15.00;99.90
25991;DHT22;13779;-33.886;151.198;2023-06-24T09:53:53;15.00;99.90
25991;DHT22;13779;-33.886;151.198;2023-06-24T09:56:26;15.00;99.90
25991;DHT22;13779;-33.886;151.198;2023-06-24T09:58:57;15.00;99.90
25991;DHT22;13779;-33.886;151.198;2023-06-24T10:01:28;14.90;99.90
25991;DHT22;13779;-33.886;151.198;2023-06-24T10:03:58;14.90;99.90
25991;DHT22;13779;-33.886;151.198;2023-06-24T10:06:29;14.90;99.90
25991;DHT22;13779;-33.886;151.198;2023-06-24T10:09:01;14.90;99.90
25991;DHT22;13779;-33.886;151.198;2023-06-24T10:11:32;14.90;99.90
25991;DHT22;13779;-33.886;151.198;2023-06-24T10:14:02;14.80;99.90
25991;DHT22;13779;-33.886;151.198;2023-06-24T10:16:33;14.70;99.90
25991;DHT22;13779;-33.886;151.198;2023-06-24T10:19:04;14.70;99.90
25991;DHT22;13779;-33.886;151.198;2023-06-24T10:21:52;14.60;99.90
25991;DHT22;13779;-33.886;151.198;2023-06-24T10:24:32;14.60;99.90
25991;DHT22;13779;-33.886;151.198;2023-06-24T10:27:11;14.50;99.90
25991;DHT22;13779;-33.886;151.198;2023-06-24T10:29:52;14.50;99.90
25991;DHT22;13779;-33.886;151.198;2023-06-24T10:32:26;14.40;99.90
25991;DHT22;13779;-33.886;151.198;2023-06-24T10:34:58;14.30;99.90
25991;DHT22;13779;-33.886;151.198;2023-06-24T10:37:34;14.30;99.90
25991;DHT22;13779;-33.886;151.198;2023-06-24T10:40:05;14.20;99.90
25991;DHT22;13779;-33.886;151.198;2023-06-24T10:42:42;14.30;99.90
25991;DHT22;13779;-33.886;151.198;2023-06-24T10:45:19;14.20;99.90
25991;DHT22;13779;-33.886;151.198;2023-06-24T10:47:51;14.20;99.90
25991;DHT22;13779;-33.886;151.198;2023-06-24T10:50:30;14.10;99.90
25991;DHT22;13779;-33.886;151.198;2023-06-24T10:53:02;14.00;99.90
25991;DHT22;13779;-33.886;151.198;2023-06-24T10:55:38;14.00;99.90
25991;DHT22;13779;-33.886;151.198;2023-06-24T10:58:12;14.00;99.90
25991;DHT22;13779;-33.886;151.198;2023-06-24T11:00:45;14.00;99.90
25991;DHT22;13779;-33.886;151.198;2023-06-24T11:03:17;14.00;99.90
25991;DHT22;13779;-33.886;151.198;2023-06-24T11:05:52;13.90;99.90
25991;DHT22;13779;-33.886;151.198;2023-06-24T11:08:23;13.90;99.90
25991;DHT22;13779;-33.886;151.198;2023-06-24T11:10:53;14.00;99.90
25991;DHT22;13779;-33.886;151.198;2023-06-24T11:13:24;13.90;99.90
25991;DHT22;13779;-33.886;151.198;2023-06-24T11:16:00;14.00;99.90
25991;DHT22;13779;-33.886;151.198;2023-06-24T11:18:40;14.00;99.90
25991;DHT22;13779;-33.886;151.198;2023-06-24T11:21:14;14.00;99.90
25991;DHT22;13779;-33.886;151.198;2023-06-24T11:23:48;14.00;99.90
25991;DHT22;13779;-33.886;151.198;2023-06-24T11:26:18;14.00;99.90
25991;DHT22;13779;-33.886;151.198;2023-06-24T11:28:49;14.00;99.90
25991;DHT22;13779;-33.886;151.198;2023-06-24T11:31:28;13.90;99.90
25991;DHT22;13779;-33.886;151.198;2023-06-24T11:33:59;13.80;99.90
25991;DHT22;13779;-33.886;151.198;2023-06-24T11:36:30;13.80;99.90
25991;DHT22;13779;-33.886;151.198;2023-06-24T11:39:04;13.70;99.90
25991;DHT22;13779;-33.886;151.198;2023-06-24T11:41:36;13.60;99.90
25991;DHT22;13779;-33.886;151.198;2023-06-24T11:44:08;13.60;99.90
25991;DHT22;13779;-33.886;151.198;2023-06-24T11:46:39;13.50;99.90
25991;DHT22;13779;-33.886;151.198;2023-06-24T11:49:10;13.40;99.90
25991;DHT22;13779;-33.886;151.198;2023-06-24T11:51:47;13.40;99.90
25991;DHT22;13779;-33.886;151.198;2023-06-24T11:54:19;13.30;99.90
25991;DHT22;13779;-33.886;151.198;2023-06-24T11:56:53;13.30;99.90
25991;DHT22;13779;-33.886;151.198;2023-06-24T11:59:26;13.20;99.90
25991;DHT22;13779;-33.886;151.198;2023-06-24T12:01:59;13.20;99.90
25991;DHT22;13779;-33.886;151.198;2023-06-24T12:04:33;13.20;99.90
25991;DHT22;13779;-33.886;151.198;2023-06-24T12:07:06;13.10;99.90
25991;DHT22;13779;-33.886;151.198;2023-06-24T12:09:38;13.20;99.90
25991;DHT22;13779;-33.886;151.198;2023-06-24T12:12:08;13.10;99.90
25991;DHT22;13779;-33.886;151.198;2023-06-24T12:14:39;13.10;99.90
25991;DHT22;13779;-33.886;151.198;2023-06-24T12:17:09;13.10;99.90
25991;DHT22;13779;-33.886;151.198;2023-06-24T12:19:39;13.10;99.90
25991;DHT22;13779;-33.886;151.198;2023-06-24T12:22:09;13.10;99.90
25991;DHT22;13779;-33.886;151.198;2023-06-24T12:24:40;13.00;99.90
25991;DHT22;13779;-33.886;151.198;2023-06-24T12:27:10;13.00;99.90
25991;DHT22;13779;-33.886;151.198;2023-06-24T12:29:40;13.10;99.90
25991;DHT22;13779;-33.886;151.198;2023-06-24T12:32:10;13.10;99.90
25991;DHT22;13779;-33.886;151.198;2023-06-24T12:34:40;13.00;99.90
25991;DHT22;13779;-33.886;151.198;2023-06-24T12:37:11;13.00;99.90
25991;DHT22;13779;-33.886;151.198;2023-06-24T12:39:41;13.00;99.90
25991;DHT22;13779;-33.886;151.198;2023-06-24T12:42:11;13.00;99.90
25991;DHT22;13779;-33.886;151.198;2023-06-24T12:44:41;13.00;99.90
25991;DHT22;13779;-33.886;151.198;2023-06-24T12:47:11;13.10;99.90
25991;DHT22;13779;-33.886;151.198;2023-06-24T12:49:42;13.10;99.90
25991;DHT22;13779;-33.886;151.198;2023-06-24T12:52:13;13.20;99.90
25991;DHT22;13779;-33.886;151.198;2023-06-24T12:54:43;13.20;99.90
25991;DHT22;13779;-33.886;151.198;2023-06-24T12:57:15;13.20;99.90
25991;DHT22;13779;-33.886;151.198;2023-06-24T12:59:45;13.20;99.90
25991;DHT22;13779;-33.886;151.198;2023-06-24T13:02:15;13.20;99.90
25991;DHT22;13779;-33.886;151.198;2023-06-24T13:04:46;13.20;99.90
25991;DHT22;13779;-33.886;151.198;2023-06-24T13:07:17;13.20;99.90
25991;DHT22;13779;-33.886;151.198;2023-06-24T13:09:48;13.10;99.90
25991;DHT22;13779;-33.886;151.198;2023-06-24T13:12:19;13.00;99.90
25991;DHT22;13779;-33.886;151.198;2023-06-24T13:14:50;13.10;99.90
25991;DHT22;13779;-33.886;151.198;2023-06-24T13:17:20;13.10;99.90
25991;DHT22;13779;-33.886;151.198;2023-06-24T13:19:50;13.20;99.90
25991;DHT22;13779;-33.886;151.198;2023-06-24T13:22:21;13.20;99.90
25991;DHT22;13779;-33.886;151.198;2023-06-24T13:24:52;13.20;99.90
25991;DHT22;13779;-33.886;151.198;2023-06-24T13:27:22;13.20;99.90
25991;DHT22;13779;-33.886;151.198;2023-06-24T13:29:52;13.20;99.90
25991;DHT22;13779;-33.886;151.198;2023-06-24T13:32:22;13.30;99.90
25991;DHT22;13779;-33.886;151.198;2023-06-24T13:34:52;13.30;99.90
25991;DHT22;13779;-33.886;151.198;2023-06-24T13:37:23;13.30;99.90
25991;DHT22;13779;-33.886;151.198;2023-06-24T13:39:54;13.30;99.90
25991;DHT22;13779;-33.886;151.198;2023-06-24T13:42:24;13.40;99.90
25991;DHT22;13779;-33.886;151.198;2023-06-24T13:44:55;13.50;99.90
25991;DHT22;13779;-33.886;151.198;2023-06-24T13:47:25;13.60;99.90
25991;DHT22;13779;-33.886;151.198;2023-06-24T13:49:55;13.60;99.90
25991;DHT22;13779;-33.886;151.198;2023-06-24T13:52:26;13.70;99.90
25991;DHT22;13779;-33.886;151.198;2023-06-24T13:54:57;13.80;99.90
25991;DHT22;13779;-33.886;151.198;2023-06-24T13:57:27;13.80;99.90
25991;DHT22;13779;-33.886;151.198;2023-06-24T13:59:57;13.80;99.90
25991;DHT22;13779;-33.886;151.198;2023-06-24T14:02:28;13.80;99.90
25991;DHT22;13779;-33.886;151.198;2023-06-24T14:04:58;13.80;99.90
25991;DHT22;13779;-33.886;151.198;2023-06-24T14:07:28;13.80;99.90
25991;DHT22;13779;-33.886;151.198;2023-06-24T14:09:58;13.80;99.90
25991;DHT22;13779;-33.886;151.198;2023-06-24T14:12:28;13.80;99.90
25991;DHT22;13779;-33.886;151.198;2023-06-24T14:14:59;13.80;99.90
25991;DHT22;13779;-33.886;151.198;2023-06-24T14:17:29;13.70;99.90
25991;DHT22;13779;-33.886;151.198;2023-06-24T14:19:59;13.70;99.90
25991;DHT22;13779;-33.886;151.198;2023-06-24T14:22:29;13.70;99.90
25991;DHT22;13779;-33.886;151.198;2023-06-24T14:24:59;13.60;99.90
25991;DHT22;13779;-33.886;151.198;2023-06-24T14:27:30;13.60;99.90
25991;DHT22;13779;-33.886;151.198;2023-06-24T14:30:00;13.60;99.90
25991;DHT22;13779;-33.886;151.198;2023-06-24T14:32:30;13.60;99.90
25991;DHT22;13779;-33.886;151.198;2023-06-24T14:35:00;13.50;99.90
25991;DHT22;13779;-33.886;151.198;2023-06-24T14:37:30;13.50;99.90
25991;DHT22;13779;-33.886;151.198;2023-06-24T14:40:00;13.40;99.90
25991;DHT22;13779;-33.886;151.198;2023-06-24T14:42:31;13.40;99.90
25991;DHT22;13779;-33.886;151.198;2023-06-24T14:45:02;13.40;99.90
25991;DHT22;13779;-33.886;151.198;2023-06-24T14:47:33;13.50;99.90
25991;DHT22;13779;-33.886;151.198;2023-06-24T14:50:04;13.50;99.90
25991;DHT22;13779;-33.886;151.198;2023-06-24T14:52:34;13.50;99.90
25991;DHT22;13779;-33.886;151.198;2023-06-24T14:55:06;13.50;99.90
25991;DHT22;13779;-33.886;151.198;2023-06-24T14:57:37;13.50;99.90
25991;DHT22;13779;-33.886;151.198;2023-06-24T15:00:09;13.50;99.90
25991;DHT22;13779;-33.886;151.198;2023-06-24T15:02:40;13.60;99.90
25991;DHT22;13779;-33.886;151.198;2023-06-24T15:05:11;13.60;99.90
25991;DHT22;13779;-33.886;151.198;2023-06-24T15:07:42;13.60;99.90
25991;DHT22;13779;-33.886;151.198;2023-06-24T15:10:16;13.70;99.90
25991;DHT22;13779;-33.886;151.198;2023-06-24T15:12:46;13.70;99.90
25991;DHT22;13779;-33.886;151.198;2023-06-24T15:15:18;13.70;99.90
25991;DHT22;13779;-33.886;151.198;2023-06-24T15:17:49;13.80;99.90
25991;DHT22;13779;-33.886;151.198;2023-06-24T15:20:19;13.80;99.90
25991;DHT22;13779;-33.886;151.198;2023-06-24T15:22:50;13.80;99.90
25991;DHT22;13779;-33.886;151.198;2023-06-24T15:25:21;13.80;99.90